sensor_id;sensor_type;location;lat;lon;timestamp;temperature;humidity
439;DHT22;206;48.782;9.252;2022-09-21T00:00:27;9.30;70.70
439;DHT22;206;48.782;9.252;2022-09-21T00:02:55;9.30;72.30
439;DHT22;206;48.782;9.252;2022-09-21T00:05:21;9.30;72.50
439;DHT22;206;48.782;9.252;2022-09-21T00:07:47;9.30;73.10
439;DHT22;206;48.782;9.252;2022-09-21T00:10:12;9.20;73.00
439;DHT22;206;48.782;9.252;2022-09-21T00:12:39;9.30;73.60
439;DHT22;206;48.782;9.252;2022-09-21T00:15:09;9.30;73.50
439;DHT22;206;48.782;9.252;2022-09-21T00:17:35;9.30;72.10
439;DHT22;206;48.782;9.252;2022-09-21T00:20:05;9.10;70.70
439;DHT22;206;48.782;9.252;2022-09-21T00:22:34;9.10;70.30
439;DHT22;206;48.782;9.252;2022-09-21T00:25:00;9.10;69.50
439;DHT22;206;48.782;9.252;2022-09-21T00:27:28;9.00;68.70
439;DHT22;206;48.782;9.252;2022-09-21T00:29:59;9.00;68.90
439;DHT22;206;48.782;9.252;2022-09-21T00:32:29;8.90;69.40
439;DHT22;206;48.782;9.252;2022-09-21T00:34:59;8.90;69.90
439;DHT22;206;48.782;9.252;2022-09-21T00:37:25;8.80;70.60
439;DHT22;206;48.782;9.252;2022-09-21T00:39:51;8.80;71.90
439;DHT22;206;48.782;9.252;2022-09-21T00:42:20;8.70;72.60
439;DHT22;206;48.782;9.252;2022-09-21T00:44:46;8.80;72.70
439;DHT22;206;48.782;9.252;2022-09-21T00:47:14;8.70;73.50
439;DHT22;206;48.782;9.252;2022-09-21T00:49:42;8.70;73.80
439;DHT22;206;48.782;9.252;2022-09-21T00:52:10;8.70;72.60
439;DHT22;206;48.782;9.252;2022-09-21T00:54:55;8.60;72.50
439;DHT22;206;48.782;9.252;2022-09-21T00:57:25;8.60;72.80
439;DHT22;206;48.782;9.252;2022-09-21T00:59:54;8.50;72.30
439;DHT22;206;48.782;9.252;2022-09-21T01:02:21;8.50;71.70
439;DHT22;206;48.782;9.252;2022-09-21T01:04:46;8.50;71.90
439;DHT22;206;48.782;9.252;2022-09-21T01:07:21;8.50;72.10
439;DHT22;206;48.782;9.252;2022-09-21T01:09:52;8.50;72.00
439;DHT22;206;48.782;9.252;2022-09-21T01:37:30;8.40;72.90
439;DHT22;206;48.782;9.252;2022-09-21T01:40:00;8.40;72.70
439;DHT22;206;48.782;9.252;2022-09-21T01:42:29;8.40;73.00
439;DHT22;206;48.782;9.252;2022-09-21T01:44:58;8.30;72.60
439;DHT22;206;48.782;9.252;2022-09-21T01:47:27;8.30;72.20
439;DHT22;206;48.782;9.252;2022-09-21T01:49:58;8.30;72.20
439;DHT22;206;48.782;9.252;2022-09-21T01:52:49;8.30;71.50
439;DHT22;206;48.782;9.252;2022-09-21T01:55:29;8.20;71.30
439;DHT22;206;48.782;9.252;2022-09-21T01:58:08;8.10;71.50
439;DHT22;206;48.782;9.252;2022-09-21T02:00:37;8.10;71.30
439;DHT22;206;48.782;9.252;2022-09-21T02:03:10;8.00;70.80
439;DHT22;206;48.782;9.252;2022-09-21T02:05:37;8.00;71.00
439;DHT22;206;48.782;9.252;2022-09-21T02:08:04;7.80;72.70
439;DHT22;206;48.782;9.252;2022-09-21T02:10:41;7.80;73.10
439;DHT22;206;48.782;9.252;2022-09-21T02:13:09;7.80;74.10
439;DHT22;206;48.782;9.252;2022-09-21T02:21:07;7.80;75.50
439;DHT22;206;48.782;9.252;2022-09-21T02:23:46;7.80;75.50
439;DHT22;206;48.782;9.252;2022-09-21T02:26:25;7.80;75.00
439;DHT22;206;48.782;9.252;2022-09-21T02:29:23;7.80;74.40
439;DHT22;206;48.782;9.252;2022-09-21T02:35:01;7.80;75.40
439;DHT22;206;48.782;9.252;2022-09-21T02:37:59;7.70;75.60
439;DHT22;206;48.782;9.252;2022-09-21T02:40:30;7.70;76.10
439;DHT22;206;48.782;9.252;2022-09-21T02:43:08;7.70;76.00
439;DHT22;206;48.782;9.252;2022-09-21T02:45:41;7.80;75.40
439;DHT22;206;48.782;9.252;2022-09-21T02:48:16;7.70;74.90
439;DHT22;206;48.782;9.252;2022-09-21T02:50:49;7.70;74.60
439;DHT22;206;48.782;9.252;2022-09-21T02:53:20;7.70;74.70
439;DHT22;206;48.782;9.252;2022-09-21T02:55:48;7.70;75.00
439;DHT22;206;48.782;9.252;2022-09-21T02:58:17;7.70;75.10
439;DHT22;206;48.782;9.252;2022-09-21T03:00:44;7.70;75.70
439;DHT22;206;48.782;9.252;2022-09-21T03:03:20;7.70;76.40
439;DHT22;206;48.782;9.252;2022-09-21T03:05:49;7.70;76.70
439;DHT22;206;48.782;9.252;2022-09-21T03:08:17;7.70;77.20
439;DHT22;206;48.782;9.252;2022-09-21T03:10:43;7.80;78.10
439;DHT22;206;48.782;9.252;2022-09-21T03:13:09;7.80;78.60
439;DHT22;206;48.782;9.252;2022-09-21T03:15:35;7.80;78.60
439;DHT22;206;48.782;9.252;2022-09-21T03:18:03;7.80;78.60
439;DHT22;206;48.782;9.252;2022-09-21T03:20:30;7.80;79.00
439;DHT22;206;48.782;9.252;2022-09-21T03:22:57;7.80;79.10
439;DHT22;206;48.782;9.252;2022-09-21T03:25:22;7.80;79.00
439;DHT22;206;48.782;9.252;2022-09-21T03:27:48;7.80;79.00
439;DHT22;206;48.782;9.252;2022-09-21T03:30:22;7.80;78.80
439;DHT22;206;48.782;9.252;2022-09-21T03:32:52;7.80;78.50
439;DHT22;206;48.782;9.252;2022-09-21T03:35:19;7.80;78.40
439;DHT22;206;48.782;9.252;2022-09-21T03:37:46;7.80;78.10
439;DHT22;206;48.782;9.252;2022-09-21T03:40:12;7.90;77.90
439;DHT22;206;48.782;9.252;2022-09-21T03:42:39;7.90;77.60
439;DHT22;206;48.782;9.252;2022-09-21T03:45:05;7.90;77.40
439;DHT22;206;48.782;9.252;2022-09-21T03:47:31;7.90;76.70
439;DHT22;206;48.782;9.252;2022-09-21T03:49:57;7.90;76.70
439;DHT22;206;48.782;9.252;2022-09-21T03:52:23;7.90;76.10
439;DHT22;206;48.782;9.252;2022-09-21T03:54:48;7.90;76.80
439;DHT22;206;48.782;9.252;2022-09-21T03:57:14;7.90;76.70
439;DHT22;206;48.782;9.252;2022-09-21T03:59:39;7.90;76.50
439;DHT22;206;48.782;9.252;2022-09-21T04:02:05;7.90;76.30
439;DHT22;206;48.782;9.252;2022-09-21T04:04:31;8.00;76.30
439;DHT22;206;48.782;9.252;2022-09-21T04:06:58;8.00;75.20
439;DHT22;206;48.782;9.252;2022-09-21T04:09:23;8.00;74.90
439;DHT22;206;48.782;9.252;2022-09-21T04:11:49;8.00;75.10
439;DHT22;206;48.782;9.252;2022-09-21T04:14:16;8.00;74.70
439;DHT22;206;48.782;9.252;2022-09-21T04:16:41;7.90;74.60
439;DHT22;206;48.782;9.252;2022-09-21T04:19:07;7.90;75.10
439;DHT22;206;48.782;9.252;2022-09-21T04:21:33;7.80;75.40
439;DHT22;206;48.782;9.252;2022-09-21T04:23:58;7.80;75.70
439;DHT22;206;48.782;9.252;2022-09-21T04:26:28;7.80;75.90
439;DHT22;206;48.782;9.252;2022-09-21T04:28:55;7.80;75.70
439;DHT22;206;48.782;9.252;2022-09-21T04:31:21;7.80;75.80
439;DHT22;206;48.782;9.252;2022-09-21T04:33:52;7.80;75.40
439;DHT22;206;48.782;9.252;2022-09-21T04:36:20;7.90;75.40
439;DHT22;206;48.782;9.252;2022-09-21T04:38:46;7.90;74.90
439;DHT22;206;48.782;9.252;2022-09-21T04:41:12;7.90;74.30
439;DHT22;206;48.782;9.252;2022-09-21T04:43:41;7.90;73.60
439;DHT22;206;48.782;9.252;2022-09-21T04:46:09;7.90;73.20
439;DHT22;206;48.782;9.252;2022-09-21T04:48:35;7.80;73.00
439;DHT22;206;48.782;9.252;2022-09-21T04:51:02;7.80;73.40
439;DHT22;206;48.782;9.252;2022-09-21T04:53:28;7.70;74.00
439;DHT22;206;48.782;9.252;2022-09-21T04:55:54;7.70;74.40
439;DHT22;206;48.782;9.252;2022-09-21T04:58:20;7.60;75.10
439;DHT22;206;48.782;9.252;2022-09-21T05:00:51;7.60;75.70
439;DHT22;206;48.782;9.252;2022-09-21T05:03:17;7.60;76.40
439;DHT22;206;48.782;9.252;2022-09-21T05:05:54;7.50;76.20
439;DHT22;206;48.782;9.252;2022-09-21T05:08:25;7.50;76.40
439;DHT22;206;48.782;9.252;2022-09-21T05:11:12;7.50;76.40
439;DHT22;206;48.782;9.252;2022-09-21T05:13:39;7.50;76.50
439;DHT22;206;48.782;9.252;2022-09-21T05:16:05;7.50;76.80
439;DHT22;206;48.782;9.252;2022-09-21T05:18:30;7.50;76.40
439;DHT22;206;48.782;9.252;2022-09-21T05:20:57;7.50;76.50
439;DHT22;206;48.782;9.252;2022-09-21T05:23:24;7.50;76.30
439;DHT22;206;48.782;9.252;2022-09-21T05:25:50;7.60;75.30
439;DHT22;206;48.782;9.252;2022-09-21T05:28:18;7.60;74.90
439;DHT22;206;48.782;9.252;2022-09-21T05:33:39;7.70;73.60
439;DHT22;206;48.782;9.252;2022-09-21T05:36:10;7.70;73.30
439;DHT22;206;48.782;9.252;2022-09-21T05:38:39;7.70;73.40
439;DHT22;206;48.782;9.252;2022-09-21T05:41:05;7.80;73.30
439;DHT22;206;48.782;9.252;2022-09-21T05:43:31;7.80;73.50
439;DHT22;206;48.782;9.252;2022-09-21T05:46:15;7.80;73.20
439;DHT22;206;48.782;9.252;2022-09-21T05:48:51;7.80;72.70
439;DHT22;206;48.782;9.252;2022-09-21T05:51:38;7.80;71.90
439;DHT22;206;48.782;9.252;2022-09-21T05:56:53;7.90;71.90
439;DHT22;206;48.782;9.252;2022-09-21T05:59:41;7.90;71.70
439;DHT22;206;48.782;9.252;2022-09-21T06:05:13;7.90;71.90
439;DHT22;206;48.782;9.252;2022-09-21T06:07:39;7.90;71.90
439;DHT22;206;48.782;9.252;2022-09-21T06:10:07;7.90;71.90
439;DHT22;206;48.782;9.252;2022-09-21T06:12:32;8.00;72.00
439;DHT22;206;48.782;9.252;2022-09-21T06:14:58;7.90;71.90
439;DHT22;206;48.782;9.252;2022-09-21T06:17:23;7.90;71.90
439;DHT22;206;48.782;9.252;2022-09-21T06:19:52;7.90;71.90
439;DHT22;206;48.782;9.252;2022-09-21T06:22:17;7.90;71.90
439;DHT22;206;48.782;9.252;2022-09-21T06:24:43;8.00;72.00
439;DHT22;206;48.782;9.252;2022-09-21T06:27:09;8.10;70.90
439;DHT22;206;48.782;9.252;2022-09-21T06:29:34;8.50;70.20
439;DHT22;206;48.782;9.252;2022-09-21T06:32:04;9.20;69.90
439;DHT22;206;48.782;9.252;2022-09-21T06:34:29;10.30;60.30
439;DHT22;206;48.782;9.252;2022-09-21T06:36:56;11.50;51.10
439;DHT22;206;48.782;9.252;2022-09-21T06:39:21;12.40;44.10
439;DHT22;206;48.782;9.252;2022-09-21T06:41:47;12.90;38.10
439;DHT22;206;48.782;9.252;2022-09-21T06:44:13;13.00;36.50
439;DHT22;206;48.782;9.252;2022-09-21T06:46:38;13.60;35.90
439;DHT22;206;48.782;9.252;2022-09-21T06:49:04;14.20;33.20
439;DHT22;206;48.782;9.252;2022-09-21T06:51:29;14.40;31.40
439;DHT22;206;48.782;9.252;2022-09-21T06:53:56;14.60;30.40
439;DHT22;206;48.782;9.252;2022-09-21T06:56:22;14.40;29.90
439;DHT22;206;48.782;9.252;2022-09-21T06:58:48;14.40;30.50
439;DHT22;206;48.782;9.252;2022-09-21T07:01:15;14.70;30.50
439;DHT22;206;48.782;9.252;2022-09-21T07:03:41;14.80;30.00
439;DHT22;206;48.782;9.252;2022-09-21T07:06:09;14.20;30.90
439;DHT22;206;48.782;9.252;2022-09-21T07:08:36;13.60;33.40
439;DHT22;206;48.782;9.252;2022-09-21T07:11:02;13.60;34.20
439;DHT22;206;48.782;9.252;2022-09-21T07:13:28;13.50;34.30
439;DHT22;206;48.782;9.252;2022-09-21T07:15:54;13.20;35.80
439;DHT22;206;48.782;9.252;2022-09-21T07:18:20;13.00;36.90
439;DHT22;206;48.782;9.252;2022-09-21T07:20:46;13.10;36.90
439;DHT22;206;48.782;9.252;2022-09-21T07:23:17;13.00;37.20
439;DHT22;206;48.782;9.252;2022-09-21T07:25:45;13.00;37.40
439;DHT22;206;48.782;9.252;2022-09-21T07:28:11;13.30;37.60
439;DHT22;206;48.782;9.252;2022-09-21T07:30:39;13.50;36.90
439;DHT22;206;48.782;9.252;2022-09-21T07:33:06;13.30;36.70
439;DHT22;206;48.782;9.252;2022-09-21T07:35:32;13.30;36.70
439;DHT22;206;48.782;9.252;2022-09-21T07:38:02;13.20;37.10
439;DHT22;206;48.782;9.252;2022-09-21T07:40:29;13.60;37.00
439;DHT22;206;48.782;9.252;2022-09-21T07:42:58;13.70;35.30
439;DHT22;206;48.782;9.252;2022-09-21T07:45:28;13.90;35.70
439;DHT22;206;48.782;9.252;2022-09-21T07:47:55;13.60;35.30
439;DHT22;206;48.782;9.252;2022-09-21T07:50:21;13.80;36.60
439;DHT22;206;48.782;9.252;2022-09-21T07:52:47;14.00;35.10
439;DHT22;206;48.782;9.252;2022-09-21T07:55:13;13.90;34.20
439;DHT22;206;48.782;9.252;2022-09-21T07:57:39;13.80;34.80
439;DHT22;206;48.782;9.252;2022-09-21T08:00:23;13.90;34.40
439;DHT22;206;48.782;9.252;2022-09-21T08:02:49;14.10;33.80
439;DHT22;206;48.782;9.252;2022-09-21T08:05:15;14.30;33.70
439;DHT22;206;48.782;9.252;2022-09-21T08:07:41;14.50;33.00
439;DHT22;206;48.782;9.252;2022-09-21T08:10:07;14.80;32.40
439;DHT22;206;48.782;9.252;2022-09-21T08:12:33;14.90;31.60
439;DHT22;206;48.782;9.252;2022-09-21T08:14:58;15.10;31.30
439;DHT22;206;48.782;9.252;2022-09-21T08:17:24;15.20;30.40
439;DHT22;206;48.782;9.252;2022-09-21T08:19:49;15.40;29.50
439;DHT22;206;48.782;9.252;2022-09-21T08:22:15;15.40;29.60
439;DHT22;206;48.782;9.252;2022-09-21T08:24:40;15.30;29.50
439;DHT22;206;48.782;9.252;2022-09-21T08:27:09;15.50;29.70
439;DHT22;206;48.782;9.252;2022-09-21T08:29:35;15.50;29.10
439;DHT22;206;48.782;9.252;2022-09-21T08:32:01;15.60;29.50
439;DHT22;206;48.782;9.252;2022-09-21T08:34:27;15.60;29.70
439;DHT22;206;48.782;9.252;2022-09-21T08:36:52;15.70;29.30
439;DHT22;206;48.782;9.252;2022-09-21T08:39:18;15.50;30.30
439;DHT22;206;48.782;9.252;2022-09-21T08:41:50;15.60;30.40
439;DHT22;206;48.782;9.252;2022-09-21T08:44:47;15.60;30.30
439;DHT22;206;48.782;9.252;2022-09-21T08:47:35;15.50;30.70
439;DHT22;206;48.782;9.252;2022-09-21T08:50:04;15.40;31.50
439;DHT22;206;48.782;9.252;2022-09-21T08:52:37;15.50;31.70
439;DHT22;206;48.782;9.252;2022-09-21T08:55:08;15.50;31.60
439;DHT22;206;48.782;9.252;2022-09-21T08:57:40;15.50;32.00
439;DHT22;206;48.782;9.252;2022-09-21T09:00:13;15.50;32.80
439;DHT22;206;48.782;9.252;2022-09-21T09:08:35;15.80;31.30
439;DHT22;206;48.782;9.252;2022-09-21T09:11:33;15.70;31.40
439;DHT22;206;48.782;9.252;2022-09-21T09:17:43;15.60;32.20
439;DHT22;206;48.782;9.252;2022-09-21T09:19:50;15.70;31.40
439;DHT22;206;48.782;9.252;2022-09-21T09:22:24;15.70;32.20
439;DHT22;206;48.782;9.252;2022-09-21T09:24:55;15.70;32.10
439;DHT22;206;48.782;9.252;2022-09-21T09:27:27;15.80;32.00
439;DHT22;206;48.782;9.252;2022-09-21T09:29:57;15.90;31.50
439;DHT22;206;48.782;9.252;2022-09-21T09:32:45;16.00;31.40
439;DHT22;206;48.782;9.252;2022-09-21T09:35:32;16.10;30.60
439;DHT22;206;48.782;9.252;2022-09-21T09:38:24;16.30;29.70
439;DHT22;206;48.782;9.252;2022-09-21T09:41:14;16.30;30.00
439;DHT22;206;48.782;9.252;2022-09-21T09:52:22;16.70;28.70
439;DHT22;206;48.782;9.252;2022-09-21T09:54:48;17.00;28.50
439;DHT22;206;48.782;9.252;2022-09-21T09:57:14;17.30;27.70
439;DHT22;206;48.782;9.252;2022-09-21T09:59:53;17.40;26.90
439;DHT22;206;48.782;9.252;2022-09-21T10:02:24;17.50;26.80
439;DHT22;206;48.782;9.252;2022-09-21T10:05:02;17.80;26.00
439;DHT22;206;48.782;9.252;2022-09-21T10:07:41;17.90;25.60
439;DHT22;206;48.782;9.252;2022-09-21T10:10:32;17.90;25.10
439;DHT22;206;48.782;9.252;2022-09-21T10:13:24;17.80;25.30
439;DHT22;206;48.782;9.252;2022-09-21T10:16:11;17.50;25.20
439;DHT22;206;48.782;9.252;2022-09-21T10:18:46;17.30;26.10
439;DHT22;206;48.782;9.252;2022-09-21T10:21:23;17.20;26.00
439;DHT22;206;48.782;9.252;2022-09-21T10:24:00;17.20;25.00
439;DHT22;206;48.782;9.252;2022-09-21T10:26:40;17.20;23.10
439;DHT22;206;48.782;9.252;2022-09-21T10:32:02;17.00;22.70
439;DHT22;206;48.782;9.252;2022-09-21T10:34:30;16.60;22.80
439;DHT22;206;48.782;9.252;2022-09-21T10:36:59;16.40;23.60
439;DHT22;206;48.782;9.252;2022-09-21T10:39:25;16.30;24.40
439;DHT22;206;48.782;9.252;2022-09-21T10:42:14;16.20;24.30
439;DHT22;206;48.782;9.252;2022-09-21T10:44:46;16.20;24.00
439;DHT22;206;48.782;9.252;2022-09-21T10:47:22;16.20;24.10
439;DHT22;206;48.782;9.252;2022-09-21T10:49:59;16.20;24.10
439;DHT22;206;48.782;9.252;2022-09-21T10:52:39;16.30;24.00
439;DHT22;206;48.782;9.252;2022-09-21T10:55:06;16.50;23.70
439;DHT22;206;48.782;9.252;2022-09-21T10:57:40;16.50;23.00
439;DHT22;206;48.782;9.252;2022-09-21T11:02:50;16.90;21.70
439;DHT22;206;48.782;9.252;2022-09-21T11:05:26;17.30;22.00
439;DHT22;206;48.782;9.252;2022-09-21T11:11:02;17.70;21.60
439;DHT22;206;48.782;9.252;2022-09-21T11:13:34;17.80;21.20
439;DHT22;206;48.782;9.252;2022-09-21T11:21:43;17.60;22.20
439;DHT22;206;48.782;9.252;2022-09-21T11:32:30;16.90;23.00
439;DHT22;206;48.782;9.252;2022-09-21T11:37:59;16.70;22.80
439;DHT22;206;48.782;9.252;2022-09-21T11:46:06;16.60;22.90
439;DHT22;206;48.782;9.252;2022-09-21T11:48:45;16.60;21.60
439;DHT22;206;48.782;9.252;2022-09-21T11:57:05;16.90;21.70
439;DHT22;206;48.782;9.252;2022-09-21T11:59:47;16.80;21.70
439;DHT22;206;48.782;9.252;2022-09-21T12:02:39;16.70;21.60
439;DHT22;206;48.782;9.252;2022-09-21T12:05:23;16.70;21.30
439;DHT22;206;48.782;9.252;2022-09-21T12:10:37;16.60;21.50
439;DHT22;206;48.782;9.252;2022-09-21T12:21:36;17.20;18.40
439;DHT22;206;48.782;9.252;2022-09-21T12:24:13;17.10;19.00
439;DHT22;206;48.782;9.252;2022-09-21T12:26:43;17.30;18.40
439;DHT22;206;48.782;9.252;2022-09-21T12:34:45;17.90;17.00
439;DHT22;206;48.782;9.252;2022-09-21T12:37:25;18.10;17.30
439;DHT22;206;48.782;9.252;2022-09-21T12:42:44;18.70;15.50
439;DHT22;206;48.782;9.252;2022-09-21T12:45:25;18.70;15.80
439;DHT22;206;48.782;9.252;2022-09-21T12:50:55;18.60;14.50
439;DHT22;206;48.782;9.252;2022-09-21T12:53:26;18.60;15.30
439;DHT22;206;48.782;9.252;2022-09-21T12:56:04;18.40;14.70
439;DHT22;206;48.782;9.252;2022-09-21T12:58:55;18.50;15.10
439;DHT22;206;48.782;9.252;2022-09-21T13:01:31;18.30;15.10
439;DHT22;206;48.782;9.252;2022-09-21T13:08:52;18.30;16.00
439;DHT22;206;48.782;9.252;2022-09-21T13:11:19;18.40;16.00
439;DHT22;206;48.782;9.252;2022-09-21T13:14:12;18.40;16.30
439;DHT22;206;48.782;9.252;2022-09-21T13:16:38;18.50;15.90
439;DHT22;206;48.782;9.252;2022-09-21T13:19:17;18.40;15.70
439;DHT22;206;48.782;9.252;2022-09-21T13:21:44;18.20;16.70
439;DHT22;206;48.782;9.252;2022-09-21T13:24:28;18.00;17.20
439;DHT22;206;48.782;9.252;2022-09-21T13:26:56;17.80;17.60
439;DHT22;206;48.782;9.252;2022-09-21T13:29:30;17.80;17.60
439;DHT22;206;48.782;9.252;2022-09-21T13:47:42;17.30;17.00
439;DHT22;206;48.782;9.252;2022-09-21T13:50:57;17.40;17.20
439;DHT22;206;48.782;9.252;2022-09-21T13:53:27;17.50;17.30
439;DHT22;206;48.782;9.252;2022-09-21T13:55:59;17.80;17.40
439;DHT22;206;48.782;9.252;2022-09-21T13:58:33;17.70;16.70
439;DHT22;206;48.782;9.252;2022-09-21T14:01:11;17.60;16.10
439;DHT22;206;48.782;9.252;2022-09-21T14:03:41;17.70;15.50
439;DHT22;206;48.782;9.252;2022-09-21T14:08:46;18.10;15.50
439;DHT22;206;48.782;9.252;2022-09-21T14:11:29;18.40;15.60
439;DHT22;206;48.782;9.252;2022-09-21T14:24:35;18.40;15.70
439;DHT22;206;48.782;9.252;2022-09-21T14:29:50;18.00;15.80
439;DHT22;206;48.782;9.252;2022-09-21T14:32:20;17.90;16.40
439;DHT22;206;48.782;9.252;2022-09-21T14:34:56;17.70;16.40
439;DHT22;206;48.782;9.252;2022-09-21T14:37:39;17.60;16.80
439;DHT22;206;48.782;9.252;2022-09-21T14:40:17;17.70;16.50
439;DHT22;206;48.782;9.252;2022-09-21T14:42:44;17.80;15.80
439;DHT22;206;48.782;9.252;2022-09-21T14:45:16;17.80;14.50
439;DHT22;206;48.782;9.252;2022-09-21T14:50:55;17.90;15.30
439;DHT22;206;48.782;9.252;2022-09-21T14:53:32;17.90;14.90
439;DHT22;206;48.782;9.252;2022-09-21T14:58:44;17.70;14.00
439;DHT22;206;48.782;9.252;2022-09-21T15:01:37;17.80;13.90
439;DHT22;206;48.782;9.252;2022-09-21T15:04:50;17.90;14.00
439;DHT22;206;48.782;9.252;2022-09-21T15:07:25;18.00;14.10
439;DHT22;206;48.782;9.252;2022-09-21T15:19:14;17.90;13.70
439;DHT22;206;48.782;9.252;2022-09-21T15:21:55;17.90;14.00
439;DHT22;206;48.782;9.252;2022-09-21T15:24:33;17.90;14.00
439;DHT22;206;48.782;9.252;2022-09-21T15:27:13;17.70;12.40
439;DHT22;206;48.782;9.252;2022-09-21T15:29:43;17.80;12.50
439;DHT22;206;48.782;9.252;2022-09-21T15:35:01;17.80;12.60
439;DHT22;206;48.782;9.252;2022-09-21T15:37:28;17.80;13.00
439;DHT22;206;48.782;9.252;2022-09-21T15:40:14;17.70;13.00
439;DHT22;206;48.782;9.252;2022-09-21T15:45:25;17.70;12.10
439;DHT22;206;48.782;9.252;2022-09-21T15:47:51;17.70;12.70
439;DHT22;206;48.782;9.252;2022-09-21T15:50:17;17.60;13.00
439;DHT22;206;48.782;9.252;2022-09-21T15:52:55;17.60;12.50
439;DHT22;206;48.782;9.252;2022-09-21T15:55:23;17.50;12.90
439;DHT22;206;48.782;9.252;2022-09-21T15:57:53;17.50;12.80
439;DHT22;206;48.782;9.252;2022-09-21T16:00:25;17.50;13.30
439;DHT22;206;48.782;9.252;2022-09-21T16:05:22;17.40;12.30
439;DHT22;206;48.782;9.252;2022-09-21T16:08:15;17.40;13.10
439;DHT22;206;48.782;9.252;2022-09-21T16:10:40;17.60;13.50
439;DHT22;206;48.782;9.252;2022-09-21T16:16:11;17.50;13.20
439;DHT22;206;48.782;9.252;2022-09-21T16:18:56;17.40;13.70
439;DHT22;206;48.782;9.252;2022-09-21T16:21:30;17.30;13.60
439;DHT22;206;48.782;9.252;2022-09-21T16:24:17;17.30;13.60
439;DHT22;206;48.782;9.252;2022-09-21T16:26:59;17.30;14.40
439;DHT22;206;48.782;9.252;2022-09-21T16:29:27;17.20;14.90
439;DHT22;206;48.782;9.252;2022-09-21T16:34:52;17.10;15.60
439;DHT22;206;48.782;9.252;2022-09-21T16:39:45;17.00;16.10
439;DHT22;206;48.782;9.252;2022-09-21T16:42:11;16.90;16.30
439;DHT22;206;48.782;9.252;2022-09-21T16:44:37;16.90;16.20
439;DHT22;206;48.782;9.252;2022-09-21T16:47:14;16.70;16.10
439;DHT22;206;48.782;9.252;2022-09-21T16:49:41;16.70;16.40
439;DHT22;206;48.782;9.252;2022-09-21T16:52:07;16.60;16.70
439;DHT22;206;48.782;9.252;2022-09-21T16:54:34;16.50;16.80
439;DHT22;206;48.782;9.252;2022-09-21T16:57:03;16.40;17.40
439;DHT22;206;48.782;9.252;2022-09-21T16:59:29;16.30;17.50
439;DHT22;206;48.782;9.252;2022-09-21T17:01:58;16.30;18.10
439;DHT22;206;48.782;9.252;2022-09-21T17:04:27;16.20;18.20
439;DHT22;206;48.782;9.252;2022-09-21T17:06:54;16.20;18.60
439;DHT22;206;48.782;9.252;2022-09-21T17:09:22;16.10;18.90
439;DHT22;206;48.782;9.252;2022-09-21T17:11:49;16.00;19.20
439;DHT22;206;48.782;9.252;2022-09-21T17:14:16;15.90;19.30
439;DHT22;206;48.782;9.252;2022-09-21T17:17:09;15.90;19.40
439;DHT22;206;48.782;9.252;2022-09-21T17:19:36;15.80;19.80
439;DHT22;206;48.782;9.252;2022-09-21T17:22:02;15.70;20.20
439;DHT22;206;48.782;9.252;2022-09-21T17:24:28;15.60;20.80
439;DHT22;206;48.782;9.252;2022-09-21T17:26:55;15.60;20.80
439;DHT22;206;48.782;9.252;2022-09-21T17:29:25;15.40;21.10
439;DHT22;206;48.782;9.252;2022-09-21T17:31:54;15.30;21.50
439;DHT22;206;48.782;9.252;2022-09-21T17:34:25;15.30;22.00
439;DHT22;206;48.782;9.252;2022-09-21T17:36:52;15.20;21.90
439;DHT22;206;48.782;9.252;2022-09-21T17:39:19;15.10;22.30
439;DHT22;206;48.782;9.252;2022-09-21T17:44:33;14.80;23.10
439;DHT22;206;48.782;9.252;2022-09-21T17:47:23;14.80;23.60
439;DHT22;206;48.782;9.252;2022-09-21T17:49:52;14.70;23.80
439;DHT22;206;48.782;9.252;2022-09-21T17:52:22;14.60;24.30
439;DHT22;206;48.782;9.252;2022-09-21T17:55:11;14.50;24.80
439;DHT22;206;48.782;9.252;2022-09-21T18:00:20;14.30;26.00
439;DHT22;206;48.782;9.252;2022-09-21T18:02:47;14.20;26.20
439;DHT22;206;48.782;9.252;2022-09-21T18:05:27;14.10;26.70
439;DHT22;206;48.782;9.252;2022-09-21T18:07:54;14.00;27.00
439;DHT22;206;48.782;9.252;2022-09-21T18:10:22;13.90;27.50
439;DHT22;206;48.782;9.252;2022-09-21T18:13:04;13.80;27.70
439;DHT22;206;48.782;9.252;2022-09-21T18:18:41;13.60;27.60
439;DHT22;206;48.782;9.252;2022-09-21T18:21:18;13.50;27.70
439;DHT22;206;48.782;9.252;2022-09-21T18:26:24;13.40;28.60
439;DHT22;206;48.782;9.252;2022-09-21T18:28:51;13.40;28.90
439;DHT22;206;48.782;9.252;2022-09-21T18:31:31;13.40;28.80
439;DHT22;206;48.782;9.252;2022-09-21T18:39:44;13.20;29.10
439;DHT22;206;48.782;9.252;2022-09-21T18:42:26;13.20;29.20
439;DHT22;206;48.782;9.252;2022-09-21T18:45:20;13.10;29.40
439;DHT22;206;48.782;9.252;2022-09-21T18:53:34;13.00;29.80
439;DHT22;206;48.782;9.252;2022-09-21T18:56:02;13.00;30.60
439;DHT22;206;48.782;9.252;2022-09-21T18:58:29;12.90;30.30
439;DHT22;206;48.782;9.252;2022-09-21T19:00:55;12.90;31.90
439;DHT22;206;48.782;9.252;2022-09-21T19:03:21;12.90;31.30
439;DHT22;206;48.782;9.252;2022-09-21T19:09:03;12.80;31.60
439;DHT22;206;48.782;9.252;2022-09-21T19:14:50;12.70;31.70
439;DHT22;206;48.782;9.252;2022-09-21T19:17:24;12.60;32.20
439;DHT22;206;48.782;9.252;2022-09-21T19:22:54;12.60;32.60
439;DHT22;206;48.782;9.252;2022-09-21T19:31:02;12.40;33.40
439;DHT22;206;48.782;9.252;2022-09-21T19:33:31;12.40;34.60
439;DHT22;206;48.782;9.252;2022-09-21T19:35:57;12.30;35.90
439;DHT22;206;48.782;9.252;2022-09-21T19:38:29;12.30;35.90
439;DHT22;206;48.782;9.252;2022-09-21T19:41:06;12.20;35.80
439;DHT22;206;48.782;9.252;2022-09-21T19:43:44;12.20;36.30
439;DHT22;206;48.782;9.252;2022-09-21T19:49:14;12.10;37.50
439;DHT22;206;48.782;9.252;2022-09-21T19:51:52;12.00;38.00
439;DHT22;206;48.782;9.252;2022-09-21T19:54:24;12.00;38.30
439;DHT22;206;48.782;9.252;2022-09-21T19:57:19;12.00;38.60
439;DHT22;206;48.782;9.252;2022-09-21T20:00:09;11.90;38.80
439;DHT22;206;48.782;9.252;2022-09-21T20:03:14;11.90;39.50
439;DHT22;206;48.782;9.252;2022-09-21T20:08:54;11.80;40.40
439;DHT22;206;48.782;9.252;2022-09-21T20:11:45;11.70;40.50
439;DHT22;206;48.782;9.252;2022-09-21T20:16:55;11.70;40.40
439;DHT22;206;48.782;9.252;2022-09-21T20:19:55;11.70;40.30
439;DHT22;206;48.782;9.252;2022-09-21T20:22:35;11.60;40.00
439;DHT22;206;48.782;9.252;2022-09-21T20:25:07;11.60;40.40
439;DHT22;206;48.782;9.252;2022-09-21T20:27:44;11.60;41.00
439;DHT22;206;48.782;9.252;2022-09-21T20:30:13;11.50;41.20
439;DHT22;206;48.782;9.252;2022-09-21T20:32:41;11.50;41.30
439;DHT22;206;48.782;9.252;2022-09-21T20:35:28;11.50;41.60
439;DHT22;206;48.782;9.252;2022-09-21T20:37:55;11.50;41.90
439;DHT22;206;48.782;9.252;2022-09-21T20:40:21;11.40;42.50
439;DHT22;206;48.782;9.252;2022-09-21T20:42:52;11.40;42.90
439;DHT22;206;48.782;9.252;2022-09-21T20:45:18;11.40;43.20
439;DHT22;206;48.782;9.252;2022-09-21T20:47:46;11.30;43.00
439;DHT22;206;48.782;9.252;2022-09-21T20:50:12;11.30;42.90
439;DHT22;206;48.782;9.252;2022-09-21T20:52:39;11.30;43.10
439;DHT22;206;48.782;9.252;2022-09-21T20:55:07;11.30;43.60
439;DHT22;206;48.782;9.252;2022-09-21T20:57:34;11.20;43.90
439;DHT22;206;48.782;9.252;2022-09-21T21:00:00;11.10;44.20
439;DHT22;206;48.782;9.252;2022-09-21T21:02:27;11.10;44.70